0TX1 – Local Weather Observations

Pecan Plantation

This weather station is operated by a private user located just north of the field. Data is gathered via OpenWeatherMap.org.

Last updated:
2021-11-27 21:17:08(3:17 pm)

Temperature: 55.4 °F

Sunrise / Sunset: 7:09 am / 5:27 pm

Civil Dawn / Dusk: 6:43 am / 5:53 pm

Nearby METARs

KGDJ 272115Z AUTO 00000KT 2 1/2SM DZ OVC005 M38/M39 A3005 RMK AO2 P0001 T13801395

KCPT 272115Z AUTO 19007G16KT 2SM BR FEW018 BKN026 OVC036 12/11 A3006 RMK A01

KFWS 272051Z 20013G17KT 10SM OVC035 15/09 A3006

KSEP 272115Z AUTO 00000KT 4SM OVC006 11/10 A3006 RMK AO2 T01130102